Česky Dansk Deutsch English Español Suomi Français Magyar Italiano Nederlands norsk Polski Português svenska Türkçe

 

Het Weer

Kolwezi (Congo, The Democratic Republic of the)

11:00, 17 juli 2012 (GMT)

NWNNE
WE
SWSSE
Home            
Kolwezi Mwinilunga Solwezi Kamina / Base Lubumbashi-Luano Kasempa Kabompo Mansa Zambezi Kawambwa Ndola Manono Kaoma Lusaka City Airport Kabwe Mbuji-Mayi Mongu Serenje Lusaka Internationalairport Kongolo Kasama Kananga Senanga

Om een weerknop op uw website of weblog te plaatsen, copieer onderstaande code en plak die in uw pagina. In het eerste vakje staat HTML-code, in het tweede vakje UBB-code.


Add to Google

Details

Wind speed:4 bf, 14 kn, 7.2 m/s, 16.1 miles/h, 25.9 km/h
Wind direction:ESE, 120°
Visibility: 7000 m, 7.0 km, 22966 ft, 4.3 miles
Clouds:Ein wenig bewölkt at 1800 ft, 549 m
Het Weer:moderate haze
Temperature:24°C, 75°F
Gefühlte Temperatur:25°C, 77°F
Dew-point:8°C, 46°F
Atmospheric pressure:1028 hPa, 771.1 mmHg, 30.36 inHg, 1.015 atm
Relative humidity:36.0 %
METAR:FZQM 171100Z 12014KT 7000 HZ FEW018 24/08 Q1028

Snelkoppelingen

Actuele weersinformatie van de hele wereld. Voeg locaties toe met het plus (+) symbool. Deze snelkoppelingen kunnen worden toegevoegd aan Google.

Lid van de Technetium groep

website free tracking
StatCounter NetStat W3C Validator

28-11-2020 11:35:39
astro.technetium.be money.technetium.be phote.technetium.be tafeltennistafel.technetium.be www.ligfiets.net